Terminal Aerodrome Forecast
Issued by NWS Blacksburg, VA

Home | Current Version | Previous Version | Text Only | Print | Product List | Glossary On
Versions: 1 2 3 4 5 6 7 8 9 10 11 12 13 14 15 16 17 18 19 20 21 22 23 24 25 26 27 28 29 30
641
FTUS41 KRNK 231125
TAFLYH
TAF
KLYH 231125Z 2312/2412 23005KT P6SM BKN100
     FM232000 24007KT P6SM VCTS SCT045CB BKN090
     FM240100 24006KT P6SM BKN070
     FM240800 00000KT P6SM SCT140=

USA.gov is the U.S. government's official web portal to all federal, state and local government web resources and services.